createdAt,value
2017-12-05T00:00:14.172Z,85.02
2017-12-05T00:01:23.507Z,85.06
2017-12-05T00:02:33.578Z,85.02
2017-12-05T00:03:43.388Z,84.68
2017-12-05T00:04:53.197Z,84.64
2017-12-05T00:06:03.000Z,84.74
2017-12-05T00:07:13.054Z,84.83
2017-12-05T00:08:22.858Z,84.92
2017-12-05T00:09:32.386Z,85.02
2017-12-05T00:10:42.444Z,84.74
2017-12-05T00:11:52.557Z,84.36
2017-12-05T00:13:02.360Z,85.02
2017-12-05T00:14:12.416Z,84.83
2017-12-05T00:15:22.482Z,84.92
2017-12-05T00:16:32.275Z,84.74
2017-12-05T00:17:42.441Z,84.83
2017-12-05T00:18:52.244Z,84.64
2017-12-05T00:20:02.302Z,84.64
2017-12-05T00:21:11.824Z,85.11
2017-12-05T00:22:21.898Z,84.64
2017-12-05T00:23:31.971Z,84.83
2017-12-05T00:24:41.507Z,84.92
2017-12-05T00:25:51.567Z,85.02
2017-12-05T00:27:01.651Z,85.02
2017-12-05T00:28:11.707Z,84.64
2017-12-05T00:29:21.301Z,84.64
2017-12-05T00:30:30.826Z,84.83
2017-12-05T00:31:40.086Z,84.64
2017-12-05T00:32:50.149Z,84.74
2017-12-05T00:34:00.196Z,84.74
2017-12-05T00:35:09.733Z,84.74
2017-12-05T00:36:19.533Z,84.74
2017-12-05T00:37:29.323Z,84.74
2017-12-05T00:38:39.388Z,84.92
2017-12-05T00:39:49.185Z,84.74
2017-12-05T00:40:59.294Z,84.74
2017-12-05T00:42:09.093Z,84.74
2017-12-05T00:43:19.147Z,84.83
2017-12-05T00:44:29.650Z,84.74
2017-12-05T00:45:40.508Z,84.64
2017-12-05T00:46:50.596Z,84.64
2017-12-05T00:48:00.136Z,84.45
2017-12-05T00:49:10.200Z,84.74
2017-12-05T00:50:19.723Z,84.55
2017-12-05T00:51:29.507Z,84.64
2017-12-05T00:52:39.615Z,84.55
2017-12-05T00:53:49.665Z,85.02
2017-12-05T00:54:59.720Z,84.74
2017-12-05T00:56:09.789Z,84.83
2017-12-05T00:57:19.860Z,84.74
2017-12-05T00:58:29.952Z,84.74
2017-12-05T00:59:40.020Z,84.64
2017-12-05T01:00:49.817Z,84.55
2017-12-05T01:01:59.869Z,85.02
2017-12-05T01:03:09.930Z,84.92
2017-12-05T01:04:19.978Z,85.02
2017-12-05T01:05:29.515Z,84.83
2017-12-05T01:06:39.560Z,84.88
2017-12-05T01:07:49.617Z,84.78
2017-12-05T01:08:59.713Z,84.78
2017-12-05T01:10:09.830Z,84.88
2017-12-05T01:11:19.678Z,84.78
2017-12-05T01:12:29.502Z,84.59
2017-12-05T01:13:39.572Z,84.83
2017-12-05T01:14:49.654Z,85.17
2017-12-05T01:15:59.226Z,84.59
2017-12-05T01:17:09.281Z,85.21
2017-12-05T01:18:19.339Z,84.98
2017-12-05T01:19:30.553Z,85.21
2017-12-05T01:20:41.335Z,84.55
2017-12-05T01:21:51.391Z,85.02
2017-12-05T01:23:01.448Z,84.55
2017-12-05T01:24:11.718Z,84.74
2017-12-05T01:25:21.564Z,84.64
2017-12-05T01:26:31.636Z,84.69
2017-12-05T01:27:41.741Z,84.69
2017-12-05T01:28:51.793Z,84.64
2017-12-05T01:30:01.848Z,84.74
2017-12-05T01:31:11.940Z,84.55
2017-12-05T01:32:21.733Z,84.74
2017-12-05T01:33:31.849Z,84.55
2017-12-05T01:34:41.892Z,84.55
2017-12-05T01:35:51.706Z,84.64
2017-12-05T01:37:01.495Z,84.74
2017-12-05T01:38:11.558Z,84.92
2017-12-05T01:39:21.098Z,84.55
2017-12-05T01:40:31.229Z,85.02
2017-12-05T01:41:43.596Z,85.11
2017-12-05T01:42:53.490Z,85.11
2017-12-05T01:44:04.220Z,85.02
2017-12-05T01:45:14.323Z,84.83
2017-12-05T01:46:24.370Z,84.74
2017-12-05T01:47:34.182Z,84.83
2017-12-05T01:48:44.243Z,84.74
2017-12-05T01:49:54.280Z,85.21
2017-12-05T01:51:04.122Z,84.83
2017-12-05T01:52:14.321Z,85.02
2017-12-05T01:53:23.858Z,84.83
2017-12-05T01:54:33.392Z,84.83
2017-12-05T01:55:43.189Z,84.74
2017-12-05T01:56:53.234Z,84.74
2017-12-05T01:58:03.287Z,84.83
2017-12-05T01:59:13.413Z,85.02
2017-12-05T02:00:22.695Z,84.55
2017-12-05T02:01:32.764Z,84.74
2017-12-05T02:02:42.601Z,84.45
2017-12-05T02:03:53.854Z,84.55
2017-12-05T02:05:03.914Z,84.55
2017-12-05T02:06:13.759Z,84.64
2017-12-05T02:07:23.562Z,84.64
2017-12-05T02:08:33.715Z,84.55
2017-12-05T02:09:43.513Z,84.45
2017-12-05T02:10:53.307Z,84.45
2017-12-05T02:12:03.362Z,84.17
2017-12-05T02:13:13.154Z,84.64
2017-12-05T02:14:23.203Z,84.74
2017-12-05T02:15:33.263Z,84.74
2017-12-05T02:16:43.317Z,84.74
2017-12-05T02:17:52.586Z,84.74
2017-12-05T02:19:02.647Z,84.74
2017-12-05T02:20:12.718Z,84.78
2017-12-05T02:21:22.768Z,84.68
2017-12-05T02:22:32.571Z,84.49
2017-12-05T02:23:42.647Z,84.45
2017-12-05T02:24:52.444Z,84.78
2017-12-05T02:26:02.549Z,84.68
2017-12-05T02:27:12.351Z,84.83
2017-12-05T02:28:21.885Z,85.21
2017-12-05T02:29:31.680Z,85.21
2017-12-05T02:30:41.472Z,85.21
2017-12-05T02:31:51.275Z,84.68
2017-12-05T02:33:01.336Z,84.59
2017-12-05T02:34:11.404Z,84.68
2017-12-05T02:35:21.195Z,84.68
2017-12-05T02:36:31.239Z,84.21
2017-12-05T02:37:41.299Z,84.78
2017-12-05T02:38:51.373Z,84.4
2017-12-05T02:40:01.444Z,84.59
2017-12-05T02:41:11.251Z,84.49
2017-12-05T02:42:21.300Z,84.49
2017-12-05T02:43:31.142Z,84.59
2017-12-05T02:44:40.957Z,84.59
2017-12-05T02:45:50.768Z,84.68
2017-12-05T02:47:00.567Z,84.59
2017-12-05T02:48:11.263Z,84.68
2017-12-05T02:49:21.073Z,84.49
2017-12-05T02:50:30.606Z,84.49
2017-12-05T02:51:41.038Z,84.3
2017-12-05T02:52:50.585Z,84.59
2017-12-05T02:54:00.647Z,84.49
2017-12-05T02:55:10.490Z,84.49
2017-12-05T02:56:20.551Z,84.59
2017-12-05T02:57:30.630Z,84.49
2017-12-05T02:58:40.993Z,84.68
2017-12-05T02:59:50.265Z,84.68
2017-12-05T03:01:00.312Z,84.68
2017-12-05T03:02:10.371Z,84.59
2017-12-05T03:33:55.812Z,81.29
2017-12-05T03:35:05.587Z,81.57
2017-12-05T03:36:14.841Z,82.43
2017-12-05T03:37:24.628Z,83.18
2017-12-05T03:38:34.424Z,84.13
2017-12-05T03:39:44.522Z,84.51
2017-12-05T03:40:54.307Z,85.27
2017-12-05T03:42:03.836Z,85.93
2017-12-05T03:43:14.257Z,85.65
2017-12-05T03:44:24.105Z,86.5
2017-12-05T03:45:33.903Z,86.03
2017-12-05T03:46:43.960Z,86.03
2017-12-05T03:47:54.014Z,85.6
2017-12-05T03:49:04.071Z,86.07
2017-12-05T03:50:14.123Z,85.88
2017-12-05T03:51:24.232Z,85.97
2017-12-05T03:52:34.284Z,85.78
2017-12-05T03:53:44.348Z,85.6
2017-12-05T03:54:53.615Z,85.17
2017-12-05T03:56:03.420Z,85.36
2017-12-05T03:57:12.732Z,85.45
2017-12-05T03:58:22.274Z,85.36
2017-12-05T03:59:32.085Z,85.07
2017-12-05T04:00:42.143Z,85.36
2017-12-05T04:01:51.675Z,85.36
2017-12-05T04:03:01.726Z,84.98
2017-12-05T04:04:11.776Z,84.88
2017-12-05T04:05:21.354Z,85.36
2017-12-05T04:06:31.406Z,84.64
2017-12-05T04:07:41.209Z,84.74
2017-12-05T04:08:51.255Z,84.74
2017-12-05T04:10:01.048Z,85.02
2017-12-05T04:11:10.853Z,84.92
2017-12-05T04:12:20.900Z,84.74
2017-12-05T04:13:30.953Z,84.64
2017-12-05T04:14:40.860Z,84.92
2017-12-05T04:15:50.408Z,85.02
2017-12-05T04:17:00.467Z,85.02
2017-12-05T04:18:10.300Z,84.92
2017-12-05T04:19:20.371Z,84.55
2017-12-05T04:20:30.469Z,84.64
2017-12-05T04:21:40.529Z,84.74
2017-12-05T04:22:50.644Z,84.74
2017-12-05T04:24:00.173Z,84.74
2017-12-05T04:25:09.960Z,84.92
2017-12-05T04:26:19.754Z,84.74
2017-12-05T04:27:29.551Z,84.74
2017-12-05T04:28:39.348Z,84.55
2017-12-05T04:29:48.616Z,84.74
2017-12-05T04:30:58.673Z,84.92
2017-12-05T04:32:08.736Z,84.92
2017-12-05T04:33:18.797Z,84.74
2017-12-05T04:34:28.592Z,84.55
2017-12-05T04:35:38.654Z,84.55
2017-12-05T04:36:48.726Z,84.59
2017-12-05T04:37:58.309Z,84.78
2017-12-05T04:39:08.364Z,84.59
2017-12-05T04:40:18.175Z,84.68
2017-12-05T04:41:28.240Z,84.49
2017-12-05T04:42:38.023Z,84.49
2017-12-05T04:43:48.107Z,84.49
2017-12-05T04:44:58.168Z,84.49
2017-12-05T04:46:08.227Z,84.49
2017-12-05T04:47:18.279Z,84.49
2017-12-05T04:48:28.345Z,84.87
2017-12-05T04:49:37.921Z,84.68
2017-12-05T04:50:47.974Z,84.59
2017-12-05T04:51:58.026Z,84.78
2017-12-05T04:53:07.867Z,84.78
2017-12-05T04:54:17.928Z,84.59
2017-12-05T04:55:27.508Z,84.63
2017-12-05T04:56:37.557Z,84.63
2017-12-05T04:57:47.084Z,84.72
2017-12-05T04:58:57.153Z,84.59
2017-12-05T05:00:06.951Z,84.82
2017-12-05T05:01:16.472Z,84.82
2017-12-05T05:02:26.542Z,84.82
2017-12-05T05:03:36.082Z,84.82
2017-12-05T05:04:46.164Z,84.91
2017-12-05T05:05:56.215Z,85.01
2017-12-05T05:07:06.263Z,85.11
2017-12-05T05:08:16.315Z,84.63
2017-12-05T05:09:26.145Z,84.91
2017-12-05T05:10:36.208Z,84.72
2017-12-05T05:11:46.318Z,84.82
2017-12-05T05:12:56.395Z,84.72
2017-12-05T05:14:06.186Z,85.01
2017-12-05T05:15:15.985Z,85.11
2017-12-05T05:16:26.042Z,85.3
2017-12-05T05:17:35.312Z,85.11
2017-12-05T05:18:45.106Z,84.82
2017-12-05T05:19:55.160Z,85.01
2017-12-05T05:21:04.958Z,84.91
2017-12-05T05:22:15.035Z,84.63
2017-12-05T05:23:25.091Z,84.82
2017-12-05T05:24:35.253Z,84.82
2017-12-05T05:25:45.316Z,85.01
2017-12-05T05:26:55.097Z,84.82
2017-12-05T05:28:04.885Z,84.72
2017-12-05T05:29:14.681Z,84.91
2017-12-05T05:30:24.531Z,84.91
2017-12-05T05:31:34.584Z,85.11
2017-12-05T05:32:44.636Z,84.91
2017-12-05T05:33:54.703Z,84.91
2017-12-05T05:35:04.764Z,85.11
2017-12-05T05:36:14.825Z,85.01
2017-12-05T05:37:24.678Z,84.82
2017-12-05T05:38:34.738Z,84.82
2017-12-05T05:39:44.523Z,84.82
2017-12-05T05:40:54.567Z,84.72
2017-12-05T05:42:04.157Z,84.72
2017-12-05T05:43:14.220Z,84.82
2017-12-05T05:44:24.274Z,84.82
2017-12-05T05:45:34.336Z,84.63
2017-12-05T05:46:44.149Z,84.72
2017-12-05T05:47:54.189Z,84.82
2017-12-05T05:49:04.254Z,84.86
2017-12-05T05:50:13.805Z,84.67
2017-12-05T05:51:23.584Z,84.72
2017-12-05T05:52:33.630Z,84.82
2017-12-05T05:53:43.466Z,84.86
2017-12-05T05:54:53.511Z,84.77
2017-12-05T05:56:03.593Z,85.01
2017-12-05T05:57:13.378Z,85.11
2017-12-05T05:58:23.418Z,84.67
2017-12-05T05:59:32.946Z,84.86
2017-12-05T06:00:42.767Z,84.82
2017-12-05T06:01:52.822Z,84.82
2017-12-05T06:03:02.896Z,84.82
2017-12-05T06:04:12.942Z,84.63
2017-12-05T06:05:22.740Z,84.72
2017-12-05T06:06:32.803Z,84.77
2017-12-05T06:07:42.596Z,84.67
2017-12-05T06:08:52.650Z,84.58
2017-12-05T06:10:02.431Z,84.63
2017-12-05T06:11:12.542Z,84.95
2017-12-05T06:12:22.338Z,84.86
2017-12-05T06:13:32.387Z,84.86
2017-12-05T06:14:42.433Z,84.86
2017-12-05T06:15:52.494Z,84.86
2017-12-05T06:17:02.626Z,84.77
2017-12-05T06:18:12.432Z,84.86
2017-12-05T06:19:22.232Z,84.67
2017-12-05T06:20:32.280Z,85.05
2017-12-05T06:21:41.803Z,84.77
2017-12-05T06:22:51.651Z,84.86
2017-12-05T06:24:01.690Z,85.05
2017-12-05T06:25:11.487Z,84.86
2017-12-05T06:26:21.547Z,85.05
2017-12-05T06:27:31.658Z,84.77
2017-12-05T06:28:41.758Z,84.86
2017-12-05T06:29:51.815Z,84.86
2017-12-05T06:31:01.614Z,84.86
2017-12-05T06:32:11.407Z,84.86
2017-12-05T06:33:21.190Z,84.86
2017-12-05T06:34:31.238Z,84.86
2017-12-05T06:35:41.289Z,84.58
2017-12-05T06:36:51.072Z,84.86
2017-12-05T06:38:01.146Z,84.86
2017-12-05T06:39:10.672Z,84.77
2017-12-05T06:40:20.733Z,84.86
2017-12-05T06:41:30.514Z,84.77
2017-12-05T06:42:40.551Z,84.86
2017-12-05T06:43:50.598Z,84.86
2017-12-05T06:45:00.401Z,84.86
2017-12-05T06:46:10.250Z,84.95
2017-12-05T06:47:19.787Z,84.77
2017-12-05T06:48:29.368Z,84.86
2017-12-05T06:49:39.424Z,84.67
2017-12-05T06:50:49.476Z,84.86
2017-12-05T06:51:59.524Z,84.77
2017-12-05T06:53:09.320Z,84.86
2017-12-05T06:54:19.108Z,84.86
2017-12-05T06:55:28.895Z,84.95
2017-12-05T06:56:38.946Z,84.86
2017-12-05T06:57:49.002Z,84.86
2017-12-05T06:58:59.057Z,84.95
2017-12-05T07:00:08.850Z,84.86
2017-12-05T07:01:18.646Z,85.05
2017-12-05T07:02:28.695Z,84.86
2017-12-05T07:03:38.246Z,85.05
2017-12-05T07:04:48.313Z,84.77
2017-12-05T07:05:57.854Z,85.24
2017-12-05T07:07:07.696Z,85.24
2017-12-05T07:08:17.752Z,84.95
2017-12-05T07:09:27.543Z,85.05
2017-12-05T07:10:37.333Z,85.15
2017-12-05T07:11:47.119Z,84.95
2017-12-05T07:12:56.647Z,84.95
2017-12-05T07:14:06.424Z,85.05
2017-12-05T07:15:16.546Z,85.15
2017-12-05T07:16:26.592Z,85.53
2017-12-05T07:17:36.121Z,85.34
2017-12-05T07:18:45.909Z,85.34
2017-12-05T07:19:55.699Z,84.95
2017-12-05T07:21:05.740Z,85.15
2017-12-05T07:22:15.798Z,84.86
2017-12-05T07:23:25.600Z,84.86
2017-12-05T07:24:35.396Z,84.86
2017-12-05T07:25:45.442Z,84.86
2017-12-05T07:26:55.536Z,84.95
2017-12-05T07:28:05.589Z,84.77
2017-12-05T07:29:15.642Z,84.95
2017-12-05T07:30:24.926Z,85.19
2017-12-05T07:31:34.713Z,85
2017-12-05T07:32:44.604Z,85.15
2017-12-05T07:33:54.388Z,85.28
2017-12-05T07:35:04.769Z,84.67
2017-12-05T07:36:14.555Z,84.67
2017-12-05T07:37:24.361Z,84.48
2017-12-05T07:38:34.463Z,85.05
2017-12-05T07:39:43.978Z,85.15
2017-12-05T07:40:54.021Z,85
2017-12-05T07:42:03.548Z,85
2017-12-05T07:43:13.330Z,85.19
2017-12-05T07:44:22.903Z,84.81
2017-12-05T07:45:32.706Z,84.72
2017-12-05T07:46:42.226Z,84.72
2017-12-05T07:47:51.770Z,84.91
2017-12-05T07:49:01.844Z,84.72
2017-12-05T07:50:11.892Z,85.38
2017-12-05T07:51:21.952Z,84.86
2017-12-05T07:52:31.490Z,84.86
2017-12-05T07:53:41.026Z,85
2017-12-05T07:54:50.817Z,85.15
2017-12-05T07:56:00.663Z,85.05
2017-12-05T07:57:10.723Z,85.15
2017-12-05T07:58:20.515Z,84.95
2017-12-05T07:59:30.305Z,85.05
2017-12-05T08:00:39.834Z,84.77
2017-12-05T08:01:49.938Z,84.86
2017-12-05T08:02:59.991Z,84.86
2017-12-05T08:04:10.047Z,84.62
2017-12-05T08:05:20.094Z,84.52
2017-12-05T08:06:30.163Z,84.72
2017-12-05T08:07:40.236Z,84.62
2017-12-05T08:08:50.019Z,84.62
2017-12-05T08:09:59.540Z,84.52
2017-12-05T08:11:09.607Z,84.33
2017-12-05T08:12:18.864Z,84.24
2017-12-05T08:13:28.926Z,84.24
2017-12-05T08:14:38.459Z,84.24
2017-12-05T08:15:48.231Z,84.33
2017-12-05T08:16:57.501Z,84.24
2017-12-05T08:18:07.548Z,84.33
2017-12-05T08:19:17.401Z,84.52
2017-12-05T08:20:27.201Z,84.52
2017-12-05T08:21:37.261Z,84.52
2017-12-05T08:22:47.315Z,84.52
2017-12-05T08:23:57.387Z,84.14
2017-12-05T08:25:07.445Z,84.43
2017-12-05T08:26:17.520Z,84.43
2017-12-05T08:27:27.318Z,84.24
2017-12-05T08:28:37.105Z,84.24
2017-12-05T08:29:47.160Z,84.24
2017-12-05T08:30:56.955Z,84.05
2017-12-05T08:32:06.480Z,84.33
2017-12-05T08:33:16.017Z,84.24
2017-12-05T08:34:25.823Z,84.24
2017-12-05T08:35:35.868Z,84.33
2017-12-05T08:36:45.659Z,84.14
2017-12-05T08:37:55.441Z,84.14
2017-12-05T08:39:05.497Z,84.24
2017-12-05T08:40:15.560Z,84.14
2017-12-05T08:41:25.362Z,84.14
2017-12-05T08:42:35.151Z,84.24
2017-12-05T08:43:45.206Z,84.28
2017-12-05T08:44:55.017Z,84.56
2017-12-05T08:46:04.822Z,84.38
2017-12-05T08:47:14.866Z,84.56
2017-12-05T08:48:24.772Z,84.38
2017-12-05T08:49:34.575Z,84.09
2017-12-05T08:50:44.647Z,84.28
2017-12-05T08:51:54.171Z,84.28
2017-12-05T08:53:04.210Z,84.28
2017-12-05T08:54:14.282Z,84.19
2017-12-05T08:55:24.334Z,84.09
2017-12-05T08:56:34.156Z,84.28
2017-12-05T08:57:43.687Z,84.28
2017-12-05T08:58:53.219Z,84.09
2017-12-05T09:00:03.507Z,84.38
2017-12-05T09:01:13.563Z,84.38
2017-12-05T09:02:23.340Z,84.38
2017-12-05T09:03:33.390Z,84.09
2017-12-05T09:04:43.422Z,84.38
2017-12-05T09:05:53.293Z,84.28
2017-12-05T09:07:03.145Z,84.38
2017-12-05T09:08:13.187Z,84.28
2017-12-05T09:09:22.711Z,84.38
2017-12-05T09:10:32.765Z,84.19
2017-12-05T09:11:43.014Z,84.19
2017-12-05T09:12:53.082Z,84.19
2017-12-05T09:14:03.192Z,84.47
2017-12-05T09:15:13.247Z,84.76
2017-12-05T09:16:23.054Z,84.38
2017-12-05T09:17:33.104Z,84.66
2017-12-05T09:18:42.634Z,84.76
2017-12-05T09:19:52.174Z,84.47
2017-12-05T09:21:01.704Z,84.66
2017-12-05T09:22:11.480Z,84.85
2017-12-05T09:23:21.342Z,84.85
2017-12-05T09:24:31.467Z,84.47
2017-12-05T09:25:41.524Z,84.56
2017-12-05T09:26:51.586Z,84.38
2017-12-05T09:28:01.126Z,84.47
2017-12-05T09:29:11.233Z,84.28
2017-12-05T09:30:21.288Z,84.38
2017-12-05T09:31:30.829Z,84.56
2017-12-05T09:32:40.616Z,84.47
2017-12-05T09:33:50.671Z,84.76
2017-12-05T09:35:00.733Z,84.38
2017-12-05T09:36:10.808Z,84.66
2017-12-05T09:37:20.859Z,84.85
2017-12-05T09:38:31.168Z,84.85
2017-12-05T09:39:40.958Z,84.66
2017-12-05T09:40:50.798Z,84.76
2017-12-05T09:42:00.068Z,84.66
2017-12-05T09:43:11.022Z,84.76
2017-12-05T09:44:20.822Z,84.66
2017-12-05T09:45:30.891Z,84.76
2017-12-05T09:46:40.727Z,84.66
2017-12-05T09:47:50.842Z,84.66
2017-12-05T09:49:00.924Z,84.95
2017-12-05T09:50:10.737Z,84.76
2017-12-05T09:51:20.815Z,84.85
2017-12-05T09:52:30.635Z,84.66
2017-12-05T09:53:40.699Z,84.38
2017-12-05T09:54:50.512Z,84.47
2017-12-05T09:56:00.585Z,84.38
2017-12-05T09:57:10.373Z,84.47
2017-12-05T09:58:20.223Z,84.28
2017-12-05T09:59:30.022Z,83.81
2017-12-05T10:00:40.077Z,83.81
2017-12-05T10:01:50.204Z,83.62
2017-12-05T10:02:59.731Z,83.62
2017-12-05T10:04:09.800Z,83.81
2017-12-05T10:05:19.577Z,84
2017-12-05T10:06:29.122Z,83.9
2017-12-05T10:07:39.186Z,83.81
2017-12-05T10:08:49.248Z,83.85
2017-12-05T10:09:59.291Z,84
2017-12-05T10:11:09.353Z,84.04
2017-12-05T10:12:20.390Z,84.04
2017-12-05T10:13:30.423Z,83.85
2017-12-05T10:14:41.582Z,83.85
2017-12-05T10:15:51.395Z,84.13
2017-12-05T10:17:01.193Z,84.04
2017-12-05T10:18:11.014Z,83.85
2017-12-05T10:19:20.269Z,83.65
2017-12-05T10:20:30.065Z,83.65
2017-12-05T10:21:40.173Z,83.85
2017-12-05T10:22:50.291Z,83.94
2017-12-05T10:23:59.554Z,84.04
2017-12-05T10:25:09.610Z,83.85
2017-12-05T10:26:19.407Z,83.85
2017-12-05T10:27:29.520Z,83.47
2017-12-05T10:28:39.569Z,83.47
2017-12-05T10:29:49.406Z,84.04
2017-12-05T10:30:59.472Z,83.65
2017-12-05T10:32:09.536Z,83.65
2017-12-05T10:33:20.635Z,83.65
2017-12-05T10:34:30.433Z,83.75
2017-12-05T10:35:40.232Z,83.85
2017-12-05T10:36:50.272Z,83.75
2017-12-05T10:38:00.379Z,83.85
2017-12-05T10:39:10.491Z,84.04
2017-12-05T10:40:20.552Z,83.75
2017-12-05T10:41:30.361Z,83.75
2017-12-05T10:42:40.418Z,83.75
2017-12-05T10:43:50.477Z,83.65
2017-12-05T10:45:00.495Z,83.65
2017-12-05T10:46:10.274Z,84.13
2017-12-05T10:47:20.317Z,83.85
2017-12-05T10:48:30.371Z,83.94
2017-12-05T10:49:40.425Z,83.65
2017-12-05T10:50:50.523Z,83.65
2017-12-05T10:52:00.064Z,83.75
2017-12-05T10:53:10.175Z,83.94
2017-12-05T10:54:19.690Z,83.94
2017-12-05T10:55:29.491Z,84.04
2017-12-05T10:56:39.336Z,84.13
2017-12-05T10:57:49.140Z,84.04
2017-12-05T10:58:59.284Z,83.85
2017-12-05T11:00:09.354Z,83.94
2017-12-05T11:01:19.229Z,84.13
2017-12-05T11:02:29.274Z,83.94
2017-12-05T11:03:39.354Z,83.65
2017-12-05T11:04:49.408Z,83.85
2017-12-05T11:05:59.493Z,84.13
2017-12-05T11:07:09.560Z,84.33
2017-12-05T11:08:19.363Z,84.61
2017-12-05T11:09:29.162Z,84.42
2017-12-05T11:10:39.213Z,84.23
2017-12-05T11:11:49.269Z,84.33
2017-12-05T11:12:59.071Z,84.33
2017-12-05T11:14:09.221Z,84.23
2017-12-05T11:15:19.267Z,84.33
2017-12-05T11:16:29.056Z,84.33
2017-12-05T11:17:38.850Z,84.42
2017-12-05T11:18:48.901Z,84.13
2017-12-05T11:19:59.013Z,84.33
2017-12-05T11:21:09.092Z,84.33
2017-12-05T11:22:18.897Z,84.61
2017-12-05T11:23:28.692Z,84.28
2017-12-05T11:24:38.494Z,84.47
2017-12-05T11:25:48.546Z,83.81
2017-12-05T11:26:58.652Z,83.75
2017-12-05T11:28:08.700Z,83.94
2017-12-05T11:29:18.745Z,84.13
2017-12-05T11:30:28.545Z,84.33
2017-12-05T11:31:38.337Z,83.94
2017-12-05T11:32:48.125Z,84.04
2017-12-05T11:33:57.929Z,83.47
2017-12-05T11:35:07.708Z,83.47
2017-12-05T11:36:17.777Z,83.47
2017-12-05T11:37:27.096Z,83.75
2017-12-05T11:38:36.924Z,84.23
2017-12-05T11:39:47.401Z,83.94
2017-12-05T11:40:57.216Z,83.85
2017-12-05T11:42:07.279Z,84.52
2017-12-05T11:43:17.120Z,84.42
2017-12-05T11:44:27.827Z,83.94
2017-12-05T11:45:37.629Z,83.85
2017-12-05T11:46:47.705Z,83.75
2017-12-05T11:47:57.754Z,83.85
2017-12-05T11:49:07.341Z,84.04
2017-12-05T11:50:17.388Z,84.33
2017-12-05T11:51:27.438Z,84.04
2017-12-05T11:52:37.254Z,84.13
2017-12-05T11:53:47.356Z,84.23
2017-12-05T11:54:57.163Z,84.13
2017-12-05T11:56:06.970Z,83.85
2017-12-05T11:57:17.030Z,84.23
2017-12-05T11:58:27.081Z,84.13
2017-12-05T11:59:36.911Z,84.04
2017-12-05T12:00:46.767Z,83.94
2017-12-05T12:01:57.984Z,83.75
2017-12-05T12:03:07.251Z,83.7
2017-12-05T12:04:17.033Z,83.7
2017-12-05T12:05:26.840Z,83.37
2017-12-05T12:06:36.692Z,83.61
2017-12-05T12:07:46.747Z,84.08
2017-12-05T12:08:56.814Z,84.13
2017-12-05T12:10:06.897Z,84.36
2017-12-05T12:11:16.959Z,84.13
2017-12-05T12:12:26.750Z,83.65
2017-12-05T12:13:36.822Z,84.04
2017-12-05T12:14:46.879Z,84.27
2017-12-05T12:15:56.945Z,83.85
2017-12-05T12:17:07.007Z,83.85
2017-12-05T12:18:17.092Z,83.22
2017-12-05T12:19:27.174Z,83.37
2017-12-05T12:20:37.236Z,83.41
2017-12-05T12:21:47.019Z,83.61
2017-12-05T12:22:57.083Z,83.7
2017-12-05T12:24:06.934Z,83.41
2017-12-05T12:25:16.755Z,83.41
2017-12-05T12:26:26.541Z,83.32
2017-12-05T12:27:36.607Z,83.51
2017-12-05T12:28:46.665Z,83.51
2017-12-05T12:29:56.772Z,83.13
2017-12-05T12:31:06.060Z,83.61
2017-12-05T12:32:16.154Z,83.51
2017-12-05T12:33:26.226Z,83.32
2017-12-05T12:34:36.062Z,83.32
2017-12-05T12:35:45.929Z,83.61
2017-12-05T12:36:55.734Z,83.32
2017-12-05T12:38:05.799Z,83.03
2017-12-05T12:39:16.210Z,83.51
2017-12-05T12:40:26.013Z,83.51
2017-12-05T12:41:36.097Z,83.22
2017-12-05T12:42:46.153Z,83.32
2017-12-05T12:43:55.952Z,83.41
2017-12-05T12:45:06.031Z,83.61
2017-12-05T12:46:15.849Z,83.8
2017-12-05T12:47:25.663Z,83.8
2017-12-05T12:48:35.476Z,83.03
2017-12-05T12:49:45.021Z,83.13
2017-12-05T12:50:54.820Z,83.13
2017-12-05T12:52:04.891Z,83.89
2017-12-05T12:53:14.726Z,83.22
2017-12-05T12:54:24.269Z,83.51
2017-12-05T12:55:34.339Z,83.36
2017-12-05T12:56:44.134Z,83.41
2017-12-05T12:57:54.182Z,83.51
2017-12-05T12:59:03.985Z,83.03
2017-12-05T13:00:14.066Z,83.32
2017-12-05T13:01:24.138Z,83.7
2017-12-05T13:02:34.192Z,83.7
2017-12-05T13:03:44.004Z,84.27
2017-12-05T13:04:53.855Z,83.61
2017-12-05T13:06:05.215Z,84.27
2017-12-05T13:07:15.003Z,83.61
2017-12-05T13:08:24.300Z,83.89
2017-12-05T13:09:34.104Z,84.08
2017-12-05T13:10:44.173Z,83.98
2017-12-05T13:11:54.221Z,84.65
2017-12-05T13:13:04.293Z,84.36
2017-12-05T13:14:14.108Z,84.36
2017-12-05T13:15:24.164Z,83.8
2017-12-05T13:16:34.283Z,84.27
2017-12-05T13:17:44.071Z,83.26
2017-12-05T13:18:53.370Z,83.65
2017-12-05T13:20:03.444Z,83.45
2017-12-05T13:21:13.509Z,83.45
2017-12-05T13:22:23.354Z,83.55
2017-12-05T13:23:33.401Z,83.26
2017-12-05T13:24:43.183Z,83.84
2017-12-05T13:25:52.984Z,83.45
2017-12-05T13:27:03.068Z,83.36
2017-12-05T13:28:14.537Z,83.45
2017-12-05T13:29:24.616Z,83.26
2017-12-05T13:30:34.431Z,83.55
2017-12-05T13:31:44.515Z,83.55
2017-12-05T13:32:54.692Z,83.89
2017-12-05T13:34:04.538Z,83.8
2017-12-05T13:35:14.578Z,83.98
2017-12-05T13:36:24.375Z,84.36
2017-12-05T13:37:34.433Z,84.27
2017-12-05T13:38:44.578Z,84.46
2017-12-05T13:39:54.726Z,84.56
2017-12-05T13:41:04.829Z,84.75
2017-12-05T13:42:14.643Z,84.84
2017-12-05T13:43:24.748Z,84.42
2017-12-05T13:44:34.576Z,84.7
2017-12-05T13:45:44.646Z,85.08
2017-12-05T13:46:54.734Z,84.99
2017-12-05T13:48:04.567Z,85.28
2017-12-05T13:49:14.392Z,85.28
2017-12-05T13:50:24.499Z,84.89
2017-12-05T13:51:34.684Z,84.8
2017-12-05T13:52:44.590Z,84.8
2017-12-05T13:53:54.410Z,84.99
2017-12-05T13:55:04.217Z,84.89
2017-12-05T13:56:13.774Z,84.89
2017-12-05T13:57:23.874Z,85.28
2017-12-05T13:58:33.989Z,84.99
2017-12-05T13:59:44.079Z,85.08
2017-12-05T14:00:54.132Z,85.28
2017-12-05T14:02:04.472Z,85.28
2017-12-05T14:03:14.333Z,85.08
2017-12-05T14:04:24.167Z,85.08
2017-12-05T14:05:33.993Z,84.99
2017-12-05T14:06:43.571Z,84.8
2017-12-05T14:07:53.404Z,84.8
2017-12-05T14:09:03.287Z,84.99
2017-12-05T14:10:13.402Z,84.99
2017-12-05T14:11:23.257Z,84.8
2017-12-05T14:12:33.984Z,84.89
2017-12-05T14:13:43.810Z,85.28
2017-12-05T14:14:53.963Z,85.28
2017-12-05T14:16:04.069Z,85.08
2017-12-05T14:17:13.632Z,85.37
2017-12-05T14:18:23.718Z,85.08
2017-12-05T14:19:33.809Z,85.28
2017-12-05T14:20:43.687Z,85.18
2017-12-05T14:21:53.777Z,85.24
2017-12-05T14:23:03.877Z,85.24
2017-12-05T14:24:13.697Z,85.04
2017-12-05T14:25:23.780Z,84.7
2017-12-05T14:26:33.874Z,85.28
2017-12-05T14:27:43.954Z,85.18
2017-12-05T14:28:54.054Z,85.04
2017-12-05T14:30:03.872Z,85.28
2017-12-05T14:31:13.436Z,85.18
2017-12-05T14:32:23.258Z,84.95
2017-12-05T14:33:33.358Z,84.85
2017-12-05T14:34:43.454Z,84.85
2017-12-05T14:35:53.294Z,84.85
2017-12-05T14:37:03.102Z,85.04
2017-12-05T14:38:12.921Z,85.04
2017-12-05T14:39:22.747Z,84.66
2017-12-05T14:40:32.847Z,84.76
2017-12-05T14:41:42.437Z,84.85
2017-12-05T14:42:52.526Z,85.24
2017-12-05T14:44:02.700Z,84.85
2017-12-05T14:45:12.257Z,85.42
2017-12-05T14:46:22.330Z,84.85
2017-12-05T14:47:32.458Z,85.04
2017-12-05T14:48:42.106Z,85.24
2017-12-05T14:49:52.163Z,85.71
2017-12-05T14:51:02.258Z,85.33
2017-12-05T14:52:12.013Z,85.42
2017-12-05T14:53:22.084Z,85.24
2017-12-05T14:54:32.165Z,85.52
2017-12-05T14:55:42.243Z,85.52
2017-12-05T14:56:52.325Z,85.52
2017-12-05T14:58:02.401Z,85.33
2017-12-05T14:59:12.210Z,85.24
2017-12-05T15:00:22.283Z,85.52
2017-12-05T15:01:32.099Z,85.61
2017-12-05T15:02:42.173Z,85.33
2017-12-05T15:03:52.238Z,85.24
2017-12-05T15:05:02.308Z,85.52
2017-12-05T15:06:12.377Z,85.52
2017-12-05T15:07:22.238Z,85.24
2017-12-05T15:08:31.798Z,85.33
2017-12-05T15:09:41.578Z,85.42
2017-12-05T15:10:51.378Z,85.24
2017-12-05T15:12:01.221Z,85.52
2017-12-05T15:13:11.665Z,85.04
2017-12-05T15:14:21.472Z,85.52
2017-12-05T15:15:31.804Z,85.04
2017-12-05T15:16:41.616Z,85.52
2017-12-05T15:17:51.712Z,85.24
2017-12-05T15:19:01.262Z,85.33
2017-12-05T15:20:11.334Z,85.33
2017-12-05T15:21:21.140Z,85.33
2017-12-05T15:22:31.000Z,85.52
2017-12-05T15:23:41.056Z,85.04
2017-12-05T15:24:51.173Z,85.52
2017-12-05T15:26:00.975Z,85.24
2017-12-05T15:27:11.042Z,85.47
2017-12-05T15:28:21.115Z,85.47
2017-12-05T15:29:30.648Z,85.33
2017-12-05T15:30:40.776Z,85.19
2017-12-05T15:31:50.849Z,85.61
2017-12-05T15:33:00.923Z,85.76